Time;durP1;ratioP1;P1;durP2;ratioP2;P2;SDS_P1;SDS_P2;PMS_P1;PMS_P2;Temp;Humidity;BMP_temperature;BMP_pressure;BME280_temperature;BME280_humidity;BME280_pressure;Samples;Min_cycle;Max_cycle;Signal;HPM_P1;HPM_P2
2021/01/03 00:01:07;;;;;;;40.70;25.30;;;;;;;3.41;90.79;98048.16;5063955;28;20074;-62
2021/01/03 00:03:32;;;;;;;42.57;24.07;;;;;;;3.41;90.57;98047.31;5074336;28;20032;-62
2021/01/03 00:05:57;;;;;;;46.93;24.77;;;;;;;3.30;90.43;98027.06;5073680;28;20029;-62
2021/01/03 00:08:23;;;;;;;45.43;26.87;;;;;;;3.37;91.10;98025.34;5059128;28;20483;-62
2021/01/03 00:10:48;;;;;;;40.43;24.20;;;;;;;3.46;90.38;98012.69;5055546;28;20095;-62
2021/01/03 00:13:14;;;;;;;53.23;28.57;;;;;;;3.43;90.43;98012.69;5067461;28;20107;-62
2021/01/03 00:15:39;;;;;;;43.63;25.07;;;;;;;3.39;90.29;98027.06;5077133;28;20034;-62
2021/01/03 00:18:05;;;;;;;50.60;27.90;;;;;;;3.25;90.72;98027.91;5065331;28;20072;-62
2021/01/03 00:20:31;;;;;;;52.97;29.60;;;;;;;3.29;90.92;98020.28;5068197;28;20177;-62
2021/01/03 00:22:57;;;;;;;50.63;30.17;;;;;;;3.35;90.90;98011.84;5075343;28;20349;-62
2021/01/03 00:25:25;;;;;;;46.63;28.10;;;;;;;3.34;90.68;97998.34;5076445;28;20021;-62
2021/01/03 00:27:51;;;;;;;52.53;29.90;;;;;;;3.34;91.22;97997.50;5073547;28;20029;-62
2021/01/03 00:30:19;;;;;;;51.17;28.13;;;;;;;3.39;91.19;98004.25;5076247;28;20103;-62
2021/01/03 00:32:45;;;;;;;49.60;29.57;;;;;;;3.38;91.21;97994.97;5076198;28;20047;-62
2021/01/03 00:35:15;;;;;;;51.43;29.73;;;;;;;3.41;90.92;97996.63;5075565;28;20462;-62
2021/01/03 00:37:40;;;;;;;54.87;30.70;;;;;;;3.39;91.56;97998.34;5075391;28;20044;-62
2021/01/03 00:40:10;;;;;;;52.20;29.57;;;;;;;3.47;91.63;97987.34;5075728;28;20024;-62
2021/01/03 00:42:36;;;;;;;50.73;30.13;;;;;;;3.46;91.00;97985.66;5075579;28;20039;-62
2021/01/03 00:45:03;;;;;;;56.40;30.43;;;;;;;3.47;91.52;97989.03;5076672;28;20620;-61
2021/01/03 00:47:28;;;;;;;50.53;30.10;;;;;;;3.43;92.03;97989.91;5074392;28;20031;-62
2021/01/03 00:49:54;;;;;;;53.13;29.80;;;;;;;3.45;91.51;97991.56;5074927;28;20024;-62
2021/01/03 00:52:19;;;;;;;50.17;30.23;;;;;;;3.44;91.95;97987.34;5074204;28;20024;-62
2021/01/03 00:54:44;;;;;;;52.77;30.97;;;;;;;3.48;91.59;97980.59;5075328;28;20460;-62
2021/01/03 00:57:10;;;;;;;49.67;28.53;;;;;;;3.51;91.87;97973.84;5075027;28;20025;-62
2021/01/03 00:59:35;;;;;;;51.20;30.57;;;;;;;3.58;91.33;97974.66;5075397;28;20484;-62
2021/01/03 01:02:01;;;;;;;50.60;27.90;;;;;;;3.56;91.62;97974.69;5074979;28;20039;-62
2021/01/03 01:04:26;;;;;;;46.03;28.03;;;;;;;3.62;91.67;97968.72;5073980;28;20028;-62
2021/01/03 01:06:51;;;;;;;45.93;26.57;;;;;;;3.65;91.37;97954.34;5074761;28;20025;-62
2021/01/03 01:09:17;;;;;;;47.77;27.57;;;;;;;3.65;91.20;97972.09;5075035;28;20495;-62
2021/01/03 01:11:42;;;;;;;54.80;28.67;;;;;;;3.63;91.33;97963.66;5075729;28;20353;-62
2021/01/03 01:14:09;;;;;;;47.83;28.10;;;;;;;3.66;91.60;97942.53;5075600;28;20070;-62
2021/01/03 01:16:36;;;;;;;46.53;28.13;;;;;;;3.67;91.53;97956.91;5075028;28;20024;-62
2021/01/03 01:19:01;;;;;;;50.10;28.90;;;;;;;3.65;91.86;97949.28;5074917;28;20031;-62
2021/01/03 01:21:27;;;;;;;45.53;28.80;;;;;;;3.69;92.04;97952.69;5074436;28;20036;-62
2021/01/03 01:23:52;;;;;;;47.30;27.47;;;;;;;3.76;91.72;97948.41;5074605;28;20020;-62
2021/01/03 01:26:18;;;;;;;46.27;27.67;;;;;;;3.78;92.14;97944.22;5074474;28;20060;-61
2021/01/03 01:28:43;;;;;;;50.33;31.17;;;;;;;3.75;92.47;97936.59;5056254;28;20043;-62
2021/01/03 01:31:09;;;;;;;41.37;26.60;;;;;;;3.80;92.40;97945.03;5054901;28;20016;-62
2021/01/03 01:33:35;;;;;;;49.67;28.43;;;;;;;3.78;92.06;97942.50;5072266;28;20445;-62
2021/01/03 01:36:00;;;;;;;49.67;28.87;;;;;;;3.79;92.25;97938.25;5075020;28;20032;-62
2021/01/03 01:38:25;;;;;;;47.37;25.93;;;;;;;3.83;92.26;97939.94;5074215;28;20400;-62
2021/01/03 01:40:51;;;;;;;49.83;29.10;;;;;;;3.90;91.83;97946.69;5074689;28;20029;-62
2021/01/03 01:43:18;;;;;;;45.73;28.37;;;;;;;3.95;91.83;97942.41;5074716;28;20039;-62
2021/01/03 01:45:46;;;;;;;49.43;29.97;;;;;;;3.95;91.93;97934.81;5075364;28;20020;-62
2021/01/03 01:48:21;;;;;;;49.93;30.70;;;;;;;3.90;91.77;97932.31;5074124;28;20027;-62
2021/01/03 01:50:52;;;;;;;;;;;;;;;3.95;91.71;97929.75;5075026;28;20029;-62
2021/01/03 01:53:26;;;;;;;47.13;27.97;;;;;;;3.97;91.89;97928.91;5074113;28;19940;-62
2021/01/03 01:56:18;;;;;;;43.43;28.00;;;;;;;3.99;91.67;97937.34;5075376;28;20031;-62
2021/01/03 01:58:58;;;;;;;45.67;28.33;;;;;;;4.02;91.58;97936.50;5074228;28;20021;-62
2021/01/03 02:01:41;;;;;;;44.67;27.23;;;;;;;4.11;91.38;97931.38;5073558;28;20536;-61
2021/01/03 02:04:32;;;;;;;41.57;26.00;;;;;;;4.05;91.52;97941.53;5073442;28;20108;-62
2021/01/03 02:07:06;;;;;;;43.60;26.77;;;;;;;4.05;91.40;97937.31;5073946;28;20078;-62
2021/01/03 02:09:46;;;;;;;44.60;26.20;;;;;;;4.10;91.25;97935.63;5073770;28;20103;-62
2021/01/03 02:12:21;;;;;;;42.50;26.90;;;;;;;4.11;91.30;97944.06;5073761;28;20103;-62
2021/01/03 02:14:47;;;;;;;41.13;26.50;;;;;;;4.09;90.99;97949.13;5073904;28;20400;-62
2021/01/03 02:17:12;;;;;;;41.60;26.70;;;;;;;4.07;90.94;97943.22;5073898;28;20031;-61
2021/01/03 02:19:38;;;;;;;42.47;26.43;;;;;;;4.09;90.98;97944.06;5073887;28;20461;-61
2021/01/03 02:22:18;;;;;;;43.50;26.73;;;;;;;4.17;90.77;97941.50;5074825;28;20032;-61
2021/01/03 02:25:00;;;;;;;43.40;26.90;;;;;;;4.12;90.61;97938.13;5073989;28;20024;-61
2021/01/03 02:27:47;;;;;;;40.57;26.03;;;;;;;4.11;90.63;97941.53;5074534;28;20111;-61
2021/01/03 02:30:15;;;;;;;40.27;26.93;;;;;;;4.13;90.61;97942.34;5073800;28;20040;-61
2021/01/03 02:32:48;;;;;;;38.97;24.47;;;;;;;4.13;90.51;97944.88;5073993;28;20052;-61
2021/01/03 02:35:16;;;;;;;44.00;26.30;;;;;;;4.09;90.99;97943.22;5073157;28;20049;-61
2021/01/03 02:37:45;;;;;;;43.03;26.13;;;;;;;4.08;90.68;97949.13;5073826;28;20456;-61
2021/01/03 02:40:21;;;;;;;41.50;26.63;;;;;;;4.14;90.61;97956.72;5073465;28;20035;-61
2021/01/03 02:42:47;;;;;;;38.37;23.77;;;;;;;4.13;90.75;97957.56;5074251;28;20134;-61
2021/01/03 02:45:12;;;;;;;41.00;25.60;;;;;;;4.06;90.60;97958.47;5073237;28;20036;-61
2021/01/03 02:47:39;;;;;;;40.53;25.57;;;;;;;4.14;90.71;97956.72;5075008;28;20349;-61
2021/01/03 02:50:07;;;;;;;37.40;24.13;;;;;;;4.17;90.66;97953.31;5073442;28;20449;-61
2021/01/03 02:52:35;;;;;;;41.70;26.40;;;;;;;4.11;90.31;97966.91;5073528;28;20475;-61
2021/01/03 02:55:02;;;;;;;40.27;25.57;;;;;;;4.11;90.84;97949.16;5073155;28;20024;-61
2021/01/03 02:57:27;;;;;;;36.93;24.40;;;;;;;4.10;90.80;97962.66;5074370;28;20334;-61
2021/01/03 02:59:53;;;;;;;41.33;24.63;;;;;;;4.17;90.56;97963.47;5072955;28;20035;-61
2021/01/03 03:02:19;;;;;;;39.97;23.77;;;;;;;4.20;90.82;97966.00;5074394;28;20119;-61
2021/01/03 03:04:45;;;;;;;40.73;24.93;;;;;;;4.12;90.44;97954.19;5072796;28;20129;-61
2021/01/03 03:07:11;;;;;;;40.23;25.40;;;;;;;4.17;90.46;97968.53;5073588;28;20521;-61
2021/01/03 03:09:36;;;;;;;44.00;27.23;;;;;;;4.12;90.41;97966.03;5073189;28;20048;-62
2021/01/03 03:12:02;;;;;;;39.10;24.60;;;;;;;4.11;90.51;97966.91;5073221;28;20039;-61
2021/01/03 03:14:28;;;;;;;38.73;25.73;;;;;;;4.17;90.67;97956.72;5073612;28;20103;-61
2021/01/03 03:17:00;;;;;;;38.50;25.40;;;;;;;4.19;90.72;97959.25;5072973;28;20446;-61
2021/01/03 03:19:25;;;;;;;42.63;25.43;;;;;;;4.12;90.68;97943.19;5060693;28;20066;-61
2021/01/03 03:21:52;;;;;;;40.57;25.53;;;;;;;4.18;90.42;97945.72;5073613;28;20099;-61
2021/01/03 03:24:18;;;;;;;42.00;24.23;;;;;;;4.13;90.44;97945.75;5070812;28;20462;-61
2021/01/03 03:26:50;;;;;;;34.87;22.83;;;;;;;4.28;90.22;97937.22;5073777;28;20024;-61
2021/01/03 03:29:15;;;;;;;40.47;24.93;;;;;;;4.27;89.98;97930.44;5072014;28;20043;-61
2021/01/03 03:31:41;;;;;;;42.37;25.80;;;;;;;4.24;89.62;97927.94;5073725;28;20050;-61
2021/01/03 03:34:06;;;;;;;41.80;25.13;;;;;;;4.22;89.93;97921.16;5073957;28;20076;-61
2021/01/03 03:36:32;;;;;;;37.50;22.83;;;;;;;4.20;89.85;97926.25;5074261;28;20024;-61
2021/01/03 03:38:57;;;;;;;39.80;23.10;;;;;;;4.19;89.49;97916.97;5071900;28;20031;-61
2021/01/03 03:41:24;;;;;;;43.57;22.87;;;;;;;4.23;89.49;97905.97;5071020;28;20046;-61
2021/01/03 03:43:50;;;;;;;35.90;21.73;;;;;;;4.26;88.94;97913.53;5071777;28;20337;-61
2021/01/03 03:46:16;;;;;;;40.00;22.80;;;;;;;4.09;89.58;97907.72;5074449;28;20029;-61
2021/01/03 03:48:42;;;;;;;39.33;24.33;;;;;;;4.11;89.50;97906.88;5077924;28;20028;-61
2021/01/03 03:51:07;;;;;;;36.87;23.07;;;;;;;4.08;89.79;97909.41;5076937;28;20054;-61
2021/01/03 03:53:33;;;;;;;42.37;24.30;;;;;;;4.18;89.85;97904.28;5076244;28;20031;-61
2021/01/03 03:55:58;;;;;;;42.63;23.93;;;;;;;4.06;89.73;97902.66;5076793;28;20066;-61
2021/01/03 03:58:23;;;;;;;43.67;24.23;;;;;;;4.08;89.93;97901.78;5076841;28;20020;-61
2021/01/03 04:00:49;;;;;;;34.73;23.13;;;;;;;4.03;90.15;97902.69;5075837;28;20024;-61
2021/01/03 04:03:18;;;;;;;38.40;23.00;;;;;;;4.12;90.05;97898.38;5077072;28;20090;-61
2021/01/03 04:05:45;;;;;;;32.23;20.90;;;;;;;4.06;90.31;97892.53;5075860;28;20016;-61
2021/01/03 04:08:11;;;;;;;30.00;20.10;;;;;;;3.98;89.96;97900.16;5077382;28;20020;-61
2021/01/03 04:10:40;;;;;;;31.93;19.50;;;;;;;4.01;90.08;97899.31;5075622;28;20028;-61
2021/01/03 04:13:07;;;;;;;28.53;18.57;;;;;;;3.98;89.67;97895.09;5077324;28;20044;-61
2021/01/03 04:15:33;;;;;;;31.83;17.70;;;;;;;4.01;89.53;97902.69;5075612;28;20036;-61
2021/01/03 04:17:58;;;;;;;27.37;16.77;;;;;;;4.03;89.74;97902.69;5077438;28;20070;-61
2021/01/03 04:20:23;;;;;;;26.73;15.40;;;;;;;3.97;89.59;97907.78;5075478;28;20040;-61
2021/01/03 04:22:49;;;;;;;25.03;16.77;;;;;;;4.02;89.35;97909.44;5077550;28;20135;-61
2021/01/03 04:25:15;;;;;;;24.37;16.93;;;;;;;4.04;89.45;97902.66;5076358;28;20032;-61
2021/01/03 04:27:40;;;;;;;25.23;17.07;;;;;;;4.02;89.43;97906.06;5076664;28;20434;-60
2021/01/03 04:30:07;;;;;;;26.60;16.27;;;;;;;4.03;89.54;97906.03;5076223;28;20107;-61
2021/01/03 04:32:33;;;;;;;27.87;16.83;;;;;;;4.05;89.02;97906.88;5076332;28;20017;-61
2021/01/03 04:34:58;;;;;;;21.90;16.03;;;;;;;4.09;89.11;97906.03;5076370;28;20147;-61
2021/01/03 04:37:23;;;;;;;25.03;17.77;;;;;;;4.14;88.54;97903.47;5076440;28;20082;-61
2021/01/03 04:39:49;;;;;;;24.07;16.70;;;;;;;4.04;88.80;97901.81;5076482;28;20418;-61
2021/01/03 04:42:21;;;;;;;23.80;16.43;;;;;;;4.08;89.06;97894.19;5075775;28;20025;-61
2021/01/03 04:44:51;;;;;;;24.00;16.10;;;;;;;4.17;88.99;97900.06;5077166;28;20028;-61
2021/01/03 04:47:49;;;;;;;26.47;16.57;;;;;;;4.12;88.81;97897.53;5075804;28;20536;-60
2021/01/03 04:50:17;;;;;;;26.03;16.03;;;;;;;4.08;88.95;97903.47;5075743;28;20078;-61
2021/01/03 04:53:13;;;;;;;29.57;17.10;;;;;;;4.06;89.18;97903.50;5075672;28;20035;-61
2021/01/03 04:55:47;;;;;;;22.92;17.05;;;;;;;4.07;89.04;97904.34;5075386;28;20334;-61
2021/01/03 04:58:13;;;;;;;24.63;15.80;;;;;;;4.00;88.72;97902.69;5075211;28;20111;-61
2021/01/03 05:00:59;;;;;;;30.63;16.63;;;;;;;4.03;89.00;97900.16;5074142;28;20182;-61
2021/01/03 05:03:33;;;;;;;23.53;16.07;;;;;;;4.06;89.09;97897.59;5075673;28;20063;-61
2021/01/03 05:06:06;;;;;;;24.73;15.85;;;;;;;4.04;89.16;97902.66;5075826;28;20035;-61
2021/01/03 05:08:46;;;;;;;21.57;13.90;;;;;;;4.02;89.33;97903.53;5074437;28;20457;-62
2021/01/03 05:11:16;;;;;;;21.10;14.70;;;;;;;4.06;88.80;97902.66;5076140;28;20031;-61
2021/01/03 05:13:54;;;;;;;27.10;15.17;;;;;;;4.02;88.85;97906.06;5075506;28;20028;-61
2021/01/03 05:16:20;;;;;;;21.20;14.90;;;;;;;3.94;89.14;97908.66;5075978;28;20033;-61
2021/01/03 05:18:46;;;;;;;25.93;16.07;;;;;;;3.89;88.85;97907.81;5075461;28;20029;-61
2021/01/03 05:21:11;;;;;;;20.80;15.27;;;;;;;3.85;88.94;97902.75;5075090;28;20099;-61
2021/01/03 05:23:39;;;;;;;21.83;14.17;;;;;;;3.93;89.18;97912.03;5075651;28;20028;-61
2021/01/03 05:26:08;;;;;;;26.40;17.07;;;;;;;3.87;89.32;97914.56;5074673;28;20025;-60
2021/01/03 05:28:37;;;;;;;23.77;15.00;;;;;;;3.86;89.40;97915.41;5076167;28;20027;-61
2021/01/03 05:31:28;;;;;;;29.60;15.63;;;;;;;3.98;88.87;97912.00;5074607;28;20628;-61
2021/01/03 05:33:59;;;;;;;30.20;18.10;;;;;;;3.94;89.13;97907.81;5072712;28;20470;-61
2021/01/03 05:36:33;;;;;;;30.43;17.07;;;;;;;3.98;88.59;97912.00;5074600;28;20028;-61
2021/01/03 05:39:02;;;;;;;31.70;19.00;;;;;;;3.90;89.05;97911.19;5075707;28;20063;-61
2021/01/03 05:42:09;;;;;;;33.40;17.70;;;;;;;3.96;89.48;97911.16;5074439;28;20028;-60
2021/01/03 05:44:40;;;;;;;28.20;16.43;;;;;;;3.95;89.36;97905.22;5075232;28;20028;-61
2021/01/03 05:47:17;;;;;;;31.37;19.33;;;;;;;3.90;89.31;97911.19;5073962;28;20032;-61
2021/01/03 05:49:44;;;;;;;31.33;17.93;;;;;;;3.81;89.19;97916.31;5075538;28;20066;-61
2021/01/03 05:52:23;;;;;;;27.70;17.20;;;;;;;3.81;89.79;97917.16;5073084;28;20032;-61
2021/01/03 05:54:51;;;;;;;28.67;17.47;;;;;;;3.76;89.28;97916.31;5075539;28;20032;-61
2021/01/03 05:57:28;;;;;;;28.43;17.73;;;;;;;3.80;90.02;97918.00;5072585;28;20103;-61
2021/01/03 05:59:54;;;;;;;30.00;18.80;;;;;;;3.72;90.00;97909.56;5076033;28;20043;-61
2021/01/03 06:02:23;;;;;;;28.53;17.27;;;;;;;3.73;90.02;97908.72;5073835;28;20028;-61
2021/01/03 06:05:23;;;;;;;30.53;17.70;;;;;;;3.76;89.81;97903.66;5074423;28;20055;-61
2021/01/03 06:08:10;;;;;;;27.60;17.63;;;;;;;3.80;89.85;97909.53;5022344;28;20075;-61
2021/01/03 06:10:39;;;;;;;31.33;18.23;;;;;;;3.82;89.82;97906.13;5055754;28;20048;-60
2021/01/03 06:13:09;;;;;;;33.67;20.07;;;;;;;3.73;89.96;97910.41;5075132;28;20017;-60
2021/01/03 06:15:57;;;;;;;26.27;17.50;;;;;;;3.72;90.02;97904.50;5073613;28;20461;-61
2021/01/03 06:18:34;;;;;;;32.07;19.77;;;;;;;3.72;90.49;97911.25;5075699;28;20031;-61
2021/01/03 06:21:00;;;;;;;29.57;19.57;;;;;;;3.69;90.05;97915.47;5072739;28;20020;-61
2021/01/03 06:23:33;;;;;;;33.23;20.00;;;;;;;3.75;89.91;97907.03;5075315;28;20357;-61
2021/01/03 06:26:10;;;;;;;30.40;18.50;;;;;;;3.70;89.83;97901.13;5073682;28;20024;-61
2021/01/03 06:28:47;;;;;;;29.17;18.90;;;;;;;3.61;90.42;97911.28;5075077;28;20044;-61
2021/01/03 06:31:27;;;;;;;29.20;18.93;;;;;;;3.74;90.68;97907.84;5073609;28;20425;-61
2021/01/03 06:34:17;;;;;;;34.60;21.77;;;;;;;3.67;90.21;97904.53;5074775;28;20116;-61
2021/01/03 06:36:52;;;;;;;34.33;20.77;;;;;;;3.61;90.77;97904.53;5073617;28;20012;-61
2021/01/03 06:39:28;;;;;;;36.65;21.35;;;;;;;3.66;90.78;97896.91;5074435;28;20039;-61
2021/01/03 06:42:00;;;;;;;32.27;20.60;;;;;;;3.68;90.51;97896.06;5072258;28;20093;-61
2021/01/03 06:44:47;;;;;;;33.53;19.60;;;;;;;3.64;90.65;97894.41;5073869;28;20046;-61
2021/01/03 06:47:31;;;;;;;34.13;20.37;;;;;;;3.52;90.98;97894.41;5073347;28;20035;-61
2021/01/03 06:50:08;;;;;;;37.93;21.10;;;;;;;3.55;91.59;97899.50;5073857;28;20027;-61
2021/01/03 06:53:09;;;;;;;36.37;20.30;;;;;;;3.56;91.26;97901.19;5072038;28;20032;-61
2021/01/03 06:56:10;;;;;;;38.60;23.07;;;;;;;3.63;91.06;97904.53;5064751;28;20399;-62
2021/01/03 06:59:07;;;;;;;36.40;21.67;;;;;;;3.70;91.02;97911.25;5072815;28;20017;-61
2021/01/03 07:01:38;;;;;;;37.03;23.23;;;;;;;3.64;90.86;97913.84;5072470;28;20080;-61
2021/01/03 07:04:30;;;;;;;43.83;24.03;;;;;;;3.72;90.55;97917.19;5072986;28;20105;-61
2021/01/03 07:07:02;;;;;;;41.80;23.23;;;;;;;3.72;90.59;97916.34;5072966;28;20040;-61
2021/01/03 07:09:28;;;;;;;38.60;22.90;;;;;;;3.63;90.42;97907.91;5073137;28;20036;-61
2021/01/03 07:11:58;;;;;;;43.00;24.03;;;;;;;3.61;90.88;97911.28;5073162;28;20117;-61
2021/01/03 07:14:23;;;;;;;41.77;23.40;;;;;;;3.57;90.99;97917.22;5073591;28;20138;-61
2021/01/03 07:16:57;;;;;;;40.17;23.50;;;;;;;3.63;90.97;97910.44;5074032;28;20353;-61
2021/01/03 07:19:43;;;;;;;39.07;22.33;;;;;;;3.67;90.58;97913.81;5072005;28;20032;-61
2021/01/03 07:22:14;;;;;;;42.07;23.13;;;;;;;3.65;91.69;97901.13;5073006;28;20063;-61
2021/01/03 07:24:51;;;;;;;41.73;23.10;;;;;;;3.71;91.12;97915.47;5072686;28;20031;-61
2021/01/03 07:27:32;;;;;;;36.97;22.80;;;;;;;3.67;91.17;97907.06;5072997;28;20020;-61
2021/01/03 07:30:04;;;;;;;37.17;21.83;;;;;;;3.81;91.47;97911.22;5073188;28;20495;-61
2021/01/03 07:32:32;;;;;;;34.40;21.70;;;;;;;3.82;90.92;97915.47;5072713;28;20056;-61
2021/01/03 07:35:00;;;;;;;40.13;23.10;;;;;;;3.78;90.96;97922.22;5067623;28;20098;-61
2021/01/03 07:37:28;;;;;;;38.80;23.53;;;;;;;3.91;91.09;97917.94;5073029;28;20117;-61
2021/01/03 07:40:03;;;;;;;37.07;21.50;;;;;;;3.90;90.75;97922.19;5072197;28;20058;-61
2021/01/03 07:42:31;;;;;;;34.80;21.45;;;;;;;3.90;90.25;97926.41;5072561;28;20062;-61
2021/01/03 07:44:58;;;;;;;36.23;22.07;;;;;;;3.91;90.28;97913.72;5072190;28;20051;-61
2021/01/03 07:47:46;;;;;;;35.13;20.93;;;;;;;4.05;90.22;97917.03;5070893;28;20032;-61
2021/01/03 07:50:17;;;;;;;36.90;23.20;;;;;;;4.08;90.38;97927.16;5068880;28;20024;-61
2021/01/03 07:52:58;;;;;;;36.57;21.63;;;;;;;4.09;89.91;97928.00;5071011;28;20020;-61
2021/01/03 07:55:31;;;;;;;36.37;22.17;;;;;;;4.07;89.94;97927.19;5064026;28;20028;-61
2021/01/03 07:58:03;;;;;;;42.00;22.87;;;;;;;4.22;89.67;97924.56;5073404;28;20028;-61
2021/01/03 08:00:32;;;;;;;30.63;19.30;;;;;;;4.27;89.81;97927.91;5072621;28;20020;-61
2021/01/03 08:03:02;;;;;;;36.50;21.90;;;;;;;4.26;89.32;97928.75;5074241;28;20464;-61
2021/01/03 08:05:29;;;;;;;34.03;19.70;;;;;;;4.29;89.06;97931.28;5071050;28;20051;-61
2021/01/03 08:08:15;;;;;;;34.37;19.33;;;;;;;4.36;88.96;97927.88;5073582;28;20047;-61
2021/01/03 08:10:45;;;;;;;30.42;18.35;;;;;;;4.42;89.02;97935.44;5067455;28;20170;-61
2021/01/03 08:13:36;;;;;;;31.90;19.23;;;;;;;4.44;88.56;97933.75;5072707;28;20025;-61
2021/01/03 08:16:01;;;;;;;28.10;19.20;;;;;;;4.39;89.04;97930.38;5069177;28;20450;-61
2021/01/03 08:18:31;;;;;;;28.83;20.20;;;;;;;4.44;88.54;97920.19;5073170;28;20086;-61
2021/01/03 08:21:05;;;;;;;31.37;19.43;;;;;;;4.43;88.81;97932.03;5073024;28;20037;-61
2021/01/03 08:23:34;;;;;;;27.35;18.25;;;;;;;4.47;88.13;97941.31;5072888;28;20028;-61
2021/01/03 08:26:22;;;;;;;32.93;19.70;;;;;;;4.49;88.42;97942.16;5073093;28;20081;-61
2021/01/03 08:29:14;;;;;;;28.50;18.00;;;;;;;4.62;88.21;97944.63;5072693;28;20093;-61
2021/01/03 08:31:47;;;;;;;28.10;18.57;;;;;;;4.58;88.39;97938.72;5070722;28;20067;-61
2021/01/03 08:34:18;;;;;;;29.23;18.70;;;;;;;4.71;88.01;97929.34;5076705;28;20469;-61
2021/01/03 08:36:44;;;;;;;26.60;19.07;;;;;;;4.86;87.80;97927.53;5076430;28;20078;-61
2021/01/03 08:39:13;;;;;;;29.17;17.60;;;;;;;5.13;86.80;97928.16;5075581;28;20365;-61
2021/01/03 08:42:00;;;;;;;24.50;16.70;;;;;;;5.17;86.26;97924.72;5076551;28;20052;-61
2021/01/03 08:44:30;;;;;;;29.03;17.80;;;;;;;5.28;85.64;97928.00;5069098;28;20327;-61
2021/01/03 08:47:03;;;;;;;23.90;16.30;;;;;;;5.37;85.01;97923.69;5076384;28;20028;-61
2021/01/03 08:49:29;;;;;;;27.63;16.53;;;;;;;5.34;85.07;97933.03;5076420;28;20063;-61
2021/01/03 08:52:06;;;;;;;26.43;15.67;;;;;;;5.58;84.16;97930.25;5076273;28;20437;-61
2021/01/03 08:54:32;;;;;;;27.43;17.07;;;;;;;5.48;84.43;97916.78;5071081;28;20024;-61
2021/01/03 08:57:01;;;;;;;23.47;15.93;;;;;;;5.44;84.53;97920.22;5076142;28;20051;-61
2021/01/03 08:59:26;;;;;;;23.37;16.73;;;;;;;5.40;84.63;97920.25;5076081;28;20402;-60
2021/01/03 09:01:52;;;;;;;26.13;15.83;;;;;;;5.45;84.88;97921.06;5076103;28;20063;-61
2021/01/03 09:04:20;;;;;;;23.20;16.53;;;;;;;5.54;84.82;97923.50;5075968;28;20349;-61
2021/01/03 09:06:53;;;;;;;22.40;15.50;;;;;;;5.56;84.89;97926.03;5075927;28;20017;-61
2021/01/03 09:09:22;;;;;;;24.40;15.90;;;;;;;5.47;85.07;97927.78;5075850;28;20032;-61
2021/01/03 09:11:57;;;;;;;23.93;15.03;;;;;;;5.56;84.70;97928.59;5076094;28;20385;-61
2021/01/03 09:14:47;;;;;;;25.83;16.13;;;;;;;5.52;84.66;97927.75;5076025;28;20032;-61
2021/01/03 09:17:20;;;;;;;25.17;17.00;;;;;;;5.66;84.61;97927.59;5076476;28;20043;-61
2021/01/03 09:19:58;;;;;;;21.20;16.53;;;;;;;5.65;84.33;97931.00;5075387;28;20028;-62
2021/01/03 09:22:29;;;;;;;23.47;15.83;;;;;;;5.64;84.73;97925.09;5075834;28;20029;-61
2021/01/03 09:25:44;;;;;;;22.77;14.90;;;;;;;5.71;83.58;97930.94;5074005;28;20020;-61
2021/01/03 09:28:25;;;;;;;21.27;14.73;;;;;;;5.72;84.12;97932.63;5068428;28;20083;-61
2021/01/03 09:30:51;;;;;;;21.53;13.53;;;;;;;5.71;84.64;97936.03;5075536;28;20055;-62
2021/01/03 09:33:19;;;;;;;21.87;15.27;;;;;;;5.80;84.14;97929.16;5069158;28;20021;-61
2021/01/03 09:35:54;;;;;;;20.20;14.10;;;;;;;5.81;83.57;97932.53;5074620;28;20104;-61
2021/01/03 09:39:07;;;;;;;18.23;13.27;;;;;;;5.85;83.87;97931.66;5074050;28;20024;-61
2021/01/03 09:41:46;;;;;;;19.90;13.80;;;;;;;5.84;83.62;97929.97;5075826;28;20036;-62
2021/01/03 09:44:48;;;;;;;20.63;14.50;;;;;;;5.81;84.02;97919.81;5074113;28;20025;-62
2021/01/03 09:47:15;;;;;;;22.43;14.13;;;;;;;5.73;84.13;97921.63;5044049;28;20040;-62
2021/01/03 09:49:40;;;;;;;19.23;12.80;;;;;;;5.76;83.91;97922.41;5074604;28;20488;-62
2021/01/03 09:52:30;;;;;;;18.53;13.43;;;;;;;5.88;84.02;97926.56;5074250;28;20032;-61
2021/01/03 09:55:06;;;;;;;19.00;13.63;;;;;;;5.97;83.92;97927.28;5072326;28;20036;-62
2021/01/03 09:57:31;;;;;;;20.17;13.90;;;;;;;5.99;83.17;97919.63;5074222;28;20470;-62
2021/01/03 09:59:57;;;;;;;20.27;14.80;;;;;;;6.13;83.01;97922.84;5074386;28;20024;-62
2021/01/03 10:02:25;;;;;;;18.53;13.10;;;;;;;6.18;82.47;97915.16;5056267;28;20033;-62
2021/01/03 10:04:50;;;;;;;20.87;14.40;;;;;;;6.26;82.45;97916.72;5054680;28;20097;-62
2021/01/03 10:07:25;;;;;;;18.70;12.63;;;;;;;6.25;82.30;97909.94;5070324;28;20492;-62
2021/01/03 10:09:59;;;;;;;18.35;14.57;;;;;;;6.29;82.15;97908.19;5074763;28;20087;-62
2021/01/03 10:12:30;;;;;;;17.47;12.73;;;;;;;6.32;82.13;97908.19;5074379;28;20081;-62
2021/01/03 10:15:04;;;;;;;15.90;11.43;;;;;;;6.34;82.43;97912.38;5075008;28;20032;-62
2021/01/03 10:17:29;;;;;;;18.03;13.13;;;;;;;6.36;82.04;97905.56;5072845;28;20036;-60
2021/01/03 10:19:55;;;;;;;16.87;11.10;;;;;;;6.34;82.00;97904.75;5073101;28;20384;-60
2021/01/03 10:22:55;;;;;;;21.10;14.20;;;;;;;6.63;80.77;97916.19;5072674;28;20481;-62
2021/01/03 10:25:20;;;;;;;17.33;14.00;;;;;;;6.66;80.50;97906.00;5072188;28;20121;-61
2021/01/03 10:28:13;;;;;;;18.67;12.50;;;;;;;6.84;79.86;97903.97;5074317;28;20060;-62
2021/01/03 10:30:41;;;;;;;18.83;12.17;;;;;;;6.82;80.03;97899.78;5072577;28;20043;-62
2021/01/03 10:33:08;;;;;;;16.33;12.03;;;;;;;7.00;79.85;97902.00;5073624;28;20166;-62
2021/01/03 10:35:34;;;;;;;18.37;13.03;;;;;;;7.06;79.05;97898.53;5073747;28;20056;-61
2021/01/03 10:38:01;;;;;;;20.17;14.30;;;;;;;7.05;78.50;97892.59;5073495;28;20456;-62
2021/01/03 10:40:27;;;;;;;17.10;12.67;;;;;;;6.97;79.22;97896.13;5059473;28;20135;-61
2021/01/03 10:42:53;;;;;;;18.83;13.07;;;;;;;6.81;79.21;97893.84;5054025;28;20025;-61
2021/01/03 10:45:20;;;;;;;18.67;12.47;;;;;;;6.93;79.33;97889.41;5065424;28;20424;-61
2021/01/03 10:47:46;;;;;;;19.87;13.43;;;;;;;6.84;79.75;97890.41;5074235;28;20112;-61
2021/01/03 10:50:13;;;;;;;17.27;12.33;;;;;;;6.83;80.28;97889.56;5073229;28;20104;-61
2021/01/03 10:52:38;;;;;;;20.57;13.73;;;;;;;6.72;79.99;97888.88;5073008;28;20024;-61
2021/01/03 10:55:06;;;;;;;15.13;11.87;;;;;;;6.78;80.14;97878.63;5072771;28;20036;-61
2021/01/03 10:57:31;;;;;;;16.80;12.40;;;;;;;6.72;79.96;97881.25;5073974;28;20385;-62
2021/01/03 10:59:56;;;;;;;21.07;11.87;;;;;;;6.70;79.66;97877.06;5073154;28;20024;-61
2021/01/03 11:02:22;;;;;;;17.23;12.67;;;;;;;6.67;80.00;97879.63;5074047;28;20155;-62
2021/01/03 11:04:47;;;;;;;16.90;11.87;;;;;;;6.70;80.55;97880.44;5072972;28;20594;-62
2021/01/03 11:07:13;;;;;;;17.60;11.80;;;;;;;6.73;80.63;97887.19;5074321;28;20035;-62
2021/01/03 11:09:38;;;;;;;14.17;11.07;;;;;;;6.72;80.72;97883.81;5072799;28;20029;-62
2021/01/03 11:12:07;;;;;;;18.43;11.83;;;;;;;6.75;80.28;97882.91;5074602;28;20046;-62
2021/01/03 11:14:34;;;;;;;16.27;11.37;;;;;;;6.73;80.22;97877.00;5072315;28;20411;-61
2021/01/03 11:17:00;;;;;;;13.50;10.40;;;;;;;6.71;80.68;97874.47;5074973;28;20024;-62
2021/01/03 11:19:25;;;;;;;15.00;10.70;;;;;;;6.76;80.73;97871.84;5073455;28;20041;-62
2021/01/03 11:21:55;;;;;;;14.60;11.00;;;;;;;6.83;80.40;97876.00;5073272;28;20055;-61
2021/01/03 11:24:21;;;;;;;14.87;10.60;;;;;;;6.77;80.37;97871.84;5073140;28;20074;-63
2021/01/03 11:26:47;;;;;;;17.80;11.33;;;;;;;6.78;80.49;97872.69;5072526;28;20062;-62
2021/01/03 11:29:14;;;;;;;15.50;11.43;;;;;;;6.82;80.49;97872.59;5073170;28;20029;-62
2021/01/03 11:31:43;;;;;;;16.67;11.20;;;;;;;6.83;79.79;97870.91;5072732;28;20513;-63
2021/01/03 11:34:10;;;;;;;18.50;10.67;;;;;;;6.86;80.16;97863.19;5073203;28;20067;-62
2021/01/03 11:36:37;;;;;;;14.83;10.67;;;;;;;6.82;80.10;97859.03;5070327;28;20116;-62
2021/01/03 11:39:08;;;;;;;13.90;11.17;;;;;;;7.05;80.07;97856.06;5073336;28;20032;-62
2021/01/03 11:41:34;;;;;;;16.17;11.33;;;;;;;7.03;79.75;97855.28;5073692;28;20131;-62
2021/01/03 11:44:00;;;;;;;18.13;10.93;;;;;;;7.11;79.79;97863.63;5073249;28;20028;-62
2021/01/03 11:46:25;;;;;;;14.97;10.93;;;;;;;7.30;79.15;97867.50;5073817;28;20077;-62